createdAt,value
2022-08-11T00:00:08.999Z,10.60
2022-08-11T00:02:42.369Z,10.90
2022-08-11T00:05:12.385Z,11.85
2022-08-11T00:07:48.579Z,11.05
2022-08-11T00:10:18.813Z,12.05
2022-08-11T00:15:17.476Z,11.80
2022-08-11T00:17:44.642Z,11.30
2022-08-11T00:20:16.770Z,9.82
2022-08-11T00:22:46.398Z,20.60
2022-08-11T00:25:15.982Z,12.00
2022-08-11T00:27:43.174Z,11.07
2022-08-11T00:30:12.186Z,11.60
2022-08-11T00:32:40.910Z,12.40
2022-08-11T00:35:51.864Z,13.25
2022-08-11T00:37:59.359Z,16.33
2022-08-11T00:40:39.370Z,11.65
2022-08-11T00:43:59.514Z,14.43
2022-08-11T00:46:26.104Z,14.80
2022-08-11T00:48:55.268Z,14.18
2022-08-11T00:52:04.349Z,15.48
2022-08-11T00:54:38.469Z,13.40
2022-08-11T00:57:36.168Z,12.35
2022-08-11T01:00:20.705Z,10.65
2022-08-11T01:03:09.085Z,11.07
2022-08-11T01:05:46.937Z,12.60
2022-08-11T01:08:49.211Z,13.50
2022-08-11T01:11:55.485Z,10.55
2022-08-11T01:15:12.880Z,10.57
2022-08-11T01:17:56.424Z,11.38
2022-08-11T01:20:48.594Z,10.88
2022-08-11T01:23:22.277Z,11.98
2022-08-11T01:26:19.732Z,11.68
2022-08-11T01:29:20.531Z,10.52
2022-08-11T01:32:02.500Z,11.00
2022-08-11T01:35:03.475Z,14.07
2022-08-11T01:37:57.378Z,11.00
2022-08-11T01:40:56.298Z,11.63
2022-08-11T01:44:18.839Z,12.60
2022-08-11T01:46:51.961Z,10.85
2022-08-11T01:50:07.638Z,12.05
2022-08-11T01:52:49.161Z,11.63
2022-08-11T01:55:26.728Z,12.45
2022-08-11T01:58:43.419Z,13.25
2022-08-11T02:01:45.467Z,12.75
2022-08-11T02:04:25.644Z,11.65
2022-08-11T02:07:30.945Z,14.02
2022-08-11T02:10:35.391Z,11.90
2022-08-11T02:13:44.662Z,12.10
2022-08-11T02:16:38.023Z,11.73
2022-08-11T02:19:40.985Z,11.73
2022-08-11T02:22:51.955Z,16.55
2022-08-11T02:25:36.871Z,11.73
2022-08-11T02:28:08.844Z,12.30
2022-08-11T02:30:42.600Z,12.05
2022-08-11T02:33:24.798Z,12.82
2022-08-11T02:36:01.233Z,11.70
2022-08-11T02:39:00.858Z,13.98
2022-08-11T02:42:08.867Z,12.13
2022-08-11T02:45:32.944Z,11.35
2022-08-11T02:48:36.903Z,12.07
2022-08-11T02:51:21.161Z,11.82
2022-08-11T02:54:20.561Z,12.25
2022-08-11T02:56:57.140Z,12.63
2022-08-11T02:59:51.182Z,11.75
2022-08-11T03:02:27.808Z,12.32
2022-08-11T03:05:13.733Z,12.02
2022-08-11T03:07:40.154Z,13.02
2022-08-11T03:10:20.577Z,12.65
2022-08-11T03:13:11.986Z,13.10
2022-08-11T03:16:09.281Z,12.82
2022-08-11T03:18:51.396Z,12.73
2022-08-11T03:22:01.695Z,12.57
2022-08-11T03:24:22.803Z,12.15
2022-08-11T03:27:08.486Z,13.23
2022-08-11T03:29:47.639Z,12.30
2022-08-11T03:32:36.203Z,13.85
2022-08-11T03:35:04.627Z,12.93
2022-08-11T03:37:50.454Z,14.18
2022-08-11T03:40:47.766Z,13.05
2022-08-11T03:43:50.267Z,12.82
2022-08-11T03:49:18.024Z,12.90
2022-08-11T03:52:04.532Z,13.27
2022-08-11T03:55:04.398Z,13.52
2022-08-11T03:57:59.241Z,14.95
2022-08-11T04:01:08.033Z,14.98
2022-08-11T04:04:14.828Z,12.88
2022-08-11T04:07:02.758Z,13.55
2022-08-11T04:10:07.540Z,14.27
2022-08-11T04:13:08.435Z,13.45
2022-08-11T04:16:10.973Z,14.50
2022-08-11T04:19:05.832Z,13.77
2022-08-11T04:21:35.250Z,14.48
2022-08-11T04:24:35.223Z,14.47
2022-08-11T04:27:37.635Z,14.23
2022-08-11T04:30:21.682Z,12.55
2022-08-11T04:33:18.894Z,13.43
2022-08-11T04:36:09.692Z,13.75
2022-08-11T04:39:03.916Z,12.70
2022-08-11T04:42:29.623Z,14.02
2022-08-11T04:45:26.347Z,13.32
2022-08-11T04:48:30.346Z,15.85
2022-08-11T04:51:30.620Z,15.80
2022-08-11T04:54:59.731Z,15.43
2022-08-11T04:57:59.800Z,13.80
2022-08-11T05:00:52.814Z,14.25
2022-08-11T05:03:23.174Z,14.32
2022-08-11T05:06:24.704Z,14.48
2022-08-11T05:08:54.065Z,14.27
2022-08-11T05:11:32.806Z,13.60
2022-08-11T05:14:55.598Z,14.95
2022-08-11T05:17:54.612Z,14.77
2022-08-11T05:20:40.957Z,14.68
2022-08-11T05:23:28.174Z,15.13
2022-08-11T05:26:47.439Z,14.48
2022-08-11T05:29:43.027Z,14.75
2022-08-11T05:32:32.052Z,17.77
2022-08-11T05:35:03.652Z,24.88
2022-08-11T05:37:30.046Z,23.00
2022-08-11T05:40:24.028Z,15.68
2022-08-11T05:43:14.317Z,15.85
2022-08-11T05:48:55.069Z,14.90
2022-08-11T05:51:51.990Z,13.82
2022-08-11T05:54:41.156Z,13.85
2022-08-11T05:57:07.942Z,14.48
2022-08-11T05:59:34.620Z,13.45
2022-08-11T06:02:07.355Z,14.50
2022-08-11T06:04:34.600Z,14.10
2022-08-11T06:07:08.887Z,15.73
2022-08-11T06:09:44.346Z,15.02
2022-08-11T06:12:38.012Z,18.60
2022-08-11T06:15:07.514Z,13.80
2022-08-11T06:17:44.270Z,14.88
2022-08-11T06:20:12.946Z,17.90
2022-08-11T06:22:43.744Z,13.90
2022-08-11T06:25:11.833Z,13.02
2022-08-11T06:27:40.775Z,18.05
2022-08-11T06:30:13.465Z,14.13
2022-08-11T06:32:45.903Z,16.05
2022-08-11T06:35:18.265Z,14.20
2022-08-11T06:37:58.992Z,20.95
2022-08-11T06:41:08.676Z,13.10
2022-08-11T06:43:55.978Z,15.05
2022-08-11T06:46:32.230Z,13.63
2022-08-11T06:49:03.170Z,14.70
2022-08-11T06:51:32.716Z,13.52
2022-08-11T06:54:04.394Z,16.80
2022-08-11T06:57:26.266Z,18.20
2022-08-11T07:00:04.801Z,16.33
2022-08-11T07:02:43.255Z,15.00
2022-08-11T07:05:18.303Z,13.70
2022-08-11T07:08:35.776Z,13.25
2022-08-11T07:11:35.316Z,13.40
2022-08-11T07:14:23.105Z,13.07
2022-08-11T07:16:51.651Z,12.35
2022-08-11T07:19:42.911Z,12.77
2022-08-11T07:22:30.333Z,15.45
2022-08-11T07:25:22.249Z,14.15
2022-08-11T07:28:15.299Z,14.48
2022-08-11T07:30:43.244Z,12.82
2022-08-11T07:33:21.137Z,11.98
2022-08-11T07:36:03.480Z,14.88
2022-08-11T07:38:51.585Z,12.60
2022-08-11T07:41:21.768Z,13.00
2022-08-11T07:44:09.188Z,11.93
2022-08-11T07:47:00.855Z,11.57
2022-08-11T07:49:48.020Z,12.05
2022-08-11T07:52:28.506Z,10.38
2022-08-11T07:55:02.310Z,18.80
2022-08-11T07:58:13.654Z,14.95
2022-08-11T08:01:02.914Z,11.65
2022-08-11T08:03:54.211Z,10.68
2022-08-11T08:06:41.647Z,10.25
2022-08-11T08:09:27.657Z,13.60
2022-08-11T08:12:13.962Z,11.05
2022-08-11T08:15:00.992Z,10.90
2022-08-11T08:18:20.730Z,10.32
2022-08-11T08:20:40.342Z,12.63
2022-08-11T08:23:08.010Z,9.70
2022-08-11T08:25:38.027Z,10.80
2022-08-11T08:30:50.526Z,10.88
2022-08-11T08:33:16.874Z,9.88
2022-08-11T08:35:54.250Z,10.48
2022-08-11T08:38:22.518Z,10.90
2022-08-11T08:40:55.934Z,10.00
2022-08-11T08:43:24.194Z,9.60
2022-08-11T08:45:55.759Z,13.23
2022-08-11T08:48:24.850Z,9.45
2022-08-11T08:51:15.098Z,13.20
2022-08-11T08:53:52.544Z,14.52
2022-08-11T08:56:30.349Z,13.32
2022-08-11T08:58:59.418Z,9.93
2022-08-11T09:01:29.534Z,9.75
2022-08-11T09:04:07.298Z,10.35
2022-08-11T09:06:40.257Z,10.02
2022-08-11T09:09:08.891Z,9.88
2022-08-11T09:11:55.503Z,9.60
2022-08-11T09:14:55.519Z,9.68
2022-08-11T09:17:23.663Z,11.35
2022-08-11T09:20:01.551Z,10.68
2022-08-11T09:23:06.493Z,9.50
2022-08-11T09:25:55.524Z,9.50
2022-08-11T09:28:23.654Z,9.60
2022-08-11T09:30:55.110Z,8.70
2022-08-11T09:33:23.856Z,9.32
2022-08-11T09:35:52.478Z,10.48
2022-08-11T09:38:46.137Z,9.33
2022-08-11T09:41:15.599Z,8.70
2022-08-11T09:44:06.091Z,10.05
2022-08-11T09:46:35.733Z,9.05
2022-08-11T09:49:04.357Z,10.55
2022-08-11T09:51:32.157Z,9.20
2022-08-11T09:54:06.499Z,8.32
2022-08-11T09:56:52.511Z,9.45
2022-08-11T09:59:21.841Z,9.63
2022-08-11T10:04:22.680Z,10.05
2022-08-11T10:07:05.403Z,8.35
2022-08-11T10:09:49.120Z,9.20
2022-08-11T10:12:27.887Z,8.40
2022-08-11T10:15:15.641Z,8.25
2022-08-11T10:18:06.084Z,8.63
2022-08-11T10:20:35.175Z,9.65
2022-08-11T10:23:21.749Z,8.48
2022-08-11T10:26:07.539Z,8.40
2022-08-11T10:28:50.093Z,9.68
2022-08-11T10:31:57.034Z,8.35
2022-08-11T10:34:25.552Z,8.57
2022-08-11T10:36:55.516Z,7.80
2022-08-11T10:39:22.845Z,8.13
2022-08-11T10:42:14.351Z,7.68
2022-08-11T10:44:52.000Z,9.10
2022-08-11T10:47:39.318Z,7.95
2022-08-11T10:50:32.464Z,8.00
2022-08-11T10:53:19.302Z,7.55
2022-08-11T10:58:50.095Z,7.45
2022-08-11T11:01:34.633Z,9.73
2022-08-11T11:04:15.602Z,8.32
2022-08-11T11:06:44.835Z,8.10
2022-08-11T11:12:09.852Z,7.38
2022-08-11T11:14:59.354Z,7.85
2022-08-11T11:17:56.986Z,7.80
2022-08-11T11:20:36.790Z,7.47
2022-08-11T11:23:10.101Z,9.30
2022-08-11T11:26:06.902Z,8.07
2022-08-11T11:28:47.435Z,7.75
2022-08-11T11:31:32.040Z,7.90
2022-08-11T11:34:30.463Z,7.78
2022-08-11T11:36:59.827Z,7.93
2022-08-11T11:39:28.880Z,7.95
2022-08-11T11:44:24.702Z,7.40
2022-08-11T11:46:52.497Z,7.32
2022-08-11T11:51:57.210Z,8.60
2022-08-11T11:54:26.592Z,7.72
2022-08-11T11:56:54.822Z,8.02
2022-08-11T11:59:43.109Z,8.33
2022-08-11T12:02:12.160Z,7.50
2022-08-11T12:04:43.101Z,7.78
2022-08-11T12:07:29.545Z,7.03
2022-08-11T12:09:57.681Z,7.40
2022-08-11T12:12:43.823Z,7.65
2022-08-11T12:15:11.575Z,8.85
2022-08-11T12:17:38.984Z,7.13
2022-08-11T12:20:30.851Z,8.98
2022-08-11T12:23:14.675Z,6.88
2022-08-11T12:26:26.424Z,7.20
2022-08-11T12:28:50.499Z,6.57
2022-08-11T12:31:17.447Z,7.75
2022-08-11T12:33:44.449Z,6.88
2022-08-11T12:36:15.735Z,7.00
2022-08-11T12:38:51.356Z,7.43
2022-08-11T12:41:39.536Z,8.00
2022-08-11T12:44:41.675Z,6.85
2022-08-11T12:47:09.253Z,7.63
2022-08-11T12:50:00.934Z,6.97
2022-08-11T12:52:29.893Z,7.25
2022-08-11T12:55:13.217Z,6.70
2022-08-11T12:58:03.924Z,6.50
2022-08-11T13:00:50.240Z,7.15
2022-08-11T13:03:38.707Z,7.47
2022-08-11T13:06:06.350Z,7.22
2022-08-11T13:08:36.731Z,7.20
2022-08-11T13:11:22.939Z,7.00
2022-08-11T13:13:57.017Z,8.30
2022-08-11T13:16:29.186Z,6.93
2022-08-11T13:18:58.663Z,7.10
2022-08-11T13:21:26.894Z,6.68
2022-08-11T13:23:59.736Z,6.50
2022-08-11T13:26:43.122Z,6.78
2022-08-11T13:29:14.908Z,6.88
2022-08-11T13:31:42.989Z,7.20
2022-08-11T13:34:10.283Z,7.50
2022-08-11T13:36:37.172Z,9.30
2022-08-11T13:39:04.203Z,7.10
2022-08-11T13:41:39.827Z,7.95
2022-08-11T13:44:08.090Z,7.07
2022-08-11T13:46:35.659Z,7.15
2022-08-11T13:49:02.926Z,7.10
2022-08-11T13:51:34.066Z,7.07
2022-08-11T13:54:30.134Z,6.95
2022-08-11T13:57:00.501Z,7.10
2022-08-11T13:59:30.819Z,7.03
2022-08-11T14:02:21.631Z,7.00
2022-08-11T14:04:56.692Z,6.43
2022-08-11T14:07:27.474Z,6.65
2022-08-11T14:09:58.944Z,7.30
2022-08-11T14:12:52.205Z,6.95
2022-08-11T14:15:25.500Z,7.00
2022-08-11T14:17:56.874Z,7.38
2022-08-11T14:20:39.030Z,7.00
2022-08-11T14:23:10.760Z,7.45
2022-08-11T14:26:00.842Z,6.80
2022-08-11T14:28:31.071Z,8.30
2022-08-11T14:31:02.835Z,7.47
2022-08-11T14:33:59.661Z,7.50
2022-08-11T14:36:21.530Z,8.57
2022-08-11T14:38:49.493Z,7.60
2022-08-11T14:41:36.470Z,8.20
2022-08-11T14:44:22.218Z,6.80
2022-08-11T14:47:23.189Z,7.50
2022-08-11T14:50:02.555Z,7.05
2022-08-11T14:53:05.282Z,7.40
2022-08-11T14:55:55.413Z,7.50
2022-08-11T14:58:26.067Z,8.15
2022-08-11T15:00:55.228Z,8.13
2022-08-11T15:03:28.263Z,7.28
2022-08-11T15:05:58.548Z,7.80
2022-08-11T15:08:47.762Z,6.70
2022-08-11T15:14:02.330Z,6.85
2022-08-11T15:16:48.198Z,6.23
2022-08-11T15:19:16.584Z,7.95
2022-08-11T15:22:01.616Z,6.32
2022-08-11T15:24:30.728Z,6.75
2022-08-11T15:27:19.162Z,7.68
2022-08-11T15:30:05.939Z,6.60
2022-08-11T15:32:53.792Z,6.38
2022-08-11T15:35:39.875Z,6.90
2022-08-11T15:38:11.592Z,7.00
2022-08-11T15:40:59.215Z,6.75
2022-08-11T15:43:56.958Z,6.75
2022-08-11T15:46:31.517Z,8.85
2022-08-11T15:49:11.299Z,7.38
2022-08-11T15:51:43.803Z,8.13
2022-08-11T15:54:17.316Z,7.32
2022-08-11T15:56:46.363Z,7.30
2022-08-11T15:59:43.308Z,7.10
2022-08-11T16:02:33.735Z,7.40
2022-08-11T16:05:04.095Z,7.60
2022-08-11T16:07:38.442Z,7.65
2022-08-11T16:10:18.737Z,7.10
2022-08-11T16:13:05.972Z,6.97
2022-08-11T16:15:54.568Z,8.27
2022-08-11T16:18:25.565Z,7.93
2022-08-11T16:20:56.936Z,10.18
2022-08-11T16:23:28.293Z,8.15
2022-08-11T16:27:02.258Z,8.10
2022-08-11T16:28:44.218Z,8.60
2022-08-11T16:31:12.541Z,8.60
2022-08-11T16:33:49.464Z,8.10
2022-08-11T16:36:38.434Z,7.65
2022-08-11T16:39:07.089Z,8.27
2022-08-11T16:41:53.986Z,9.30
2022-08-11T16:44:40.809Z,8.55
2022-08-11T16:47:12.011Z,8.18
2022-08-11T16:49:52.483Z,7.70
2022-08-11T16:52:20.335Z,10.25
2022-08-11T16:54:49.651Z,10.48
2022-08-11T16:57:39.888Z,7.50
2022-08-11T17:00:12.544Z,8.15
2022-08-11T17:03:05.348Z,13.55
2022-08-11T17:05:53.848Z,7.65
2022-08-11T17:11:42.061Z,7.70
2022-08-11T17:14:35.004Z,8.23
2022-08-11T17:17:05.910Z,7.97
2022-08-11T17:22:39.883Z,11.60
2022-08-11T17:25:08.731Z,10.95
2022-08-11T17:27:36.458Z,8.50
2022-08-11T17:30:06.263Z,12.25
2022-08-11T17:33:12.103Z,8.07
2022-08-11T17:35:41.570Z,7.85
2022-08-11T17:41:06.723Z,7.90
2022-08-11T17:43:52.496Z,8.55
2022-08-11T17:46:39.049Z,8.05
2022-08-11T17:49:07.786Z,8.32
2022-08-11T17:51:53.934Z,10.65
2022-08-11T17:54:40.373Z,7.53
2022-08-11T17:57:28.546Z,10.57
2022-08-11T17:59:57.691Z,8.98
2022-08-11T18:02:53.386Z,9.50
2022-08-11T18:05:26.914Z,9.05
2022-08-11T18:08:15.149Z,9.88
2022-08-11T18:11:01.386Z,14.57
2022-08-11T18:13:49.754Z,8.07
2022-08-11T18:16:35.170Z,11.65
2022-08-11T18:19:21.044Z,8.10
2022-08-11T18:22:07.961Z,8.82
2022-08-11T18:25:07.392Z,8.07
2022-08-11T18:27:54.486Z,9.02
2022-08-11T18:30:39.912Z,11.90
2022-08-11T18:36:36.006Z,8.73
2022-08-11T18:39:23.579Z,8.93
2022-08-11T18:42:10.151Z,8.32
2022-08-11T18:44:57.057Z,8.38
2022-08-11T18:47:44.350Z,8.30
2022-08-11T18:50:38.855Z,8.32
2022-08-11T18:53:26.144Z,8.55
2022-08-11T18:56:11.527Z,8.55
2022-08-11T18:59:01.918Z,9.23
2022-08-11T19:01:54.814Z,10.05
2022-08-11T19:04:41.391Z,9.80
2022-08-11T19:07:28.691Z,11.10
2022-08-11T19:10:15.046Z,10.00
2022-08-11T19:13:01.876Z,9.93
2022-08-11T19:15:48.137Z,9.85
2022-08-11T19:18:38.354Z,10.90
2022-08-11T19:21:24.902Z,9.70
2022-08-11T19:24:14.804Z,9.27
2022-08-11T19:27:01.595Z,9.85
2022-08-11T19:30:05.233Z,14.48
2022-08-11T19:32:55.120Z,10.20
2022-08-11T19:35:40.485Z,11.02
2022-08-11T19:38:27.350Z,10.15
2022-08-11T19:41:13.253Z,10.90
2022-08-11T19:44:00.936Z,10.63
2022-08-11T19:46:46.221Z,11.70
2022-08-11T19:49:33.145Z,9.95
2022-08-11T19:52:18.463Z,9.60
2022-08-11T19:55:04.567Z,10.23
2022-08-11T19:57:50.715Z,11.35
2022-08-11T20:00:38.517Z,11.02
2022-08-11T20:03:27.171Z,10.15
2022-08-11T20:06:14.536Z,10.70
2022-08-11T20:09:02.583Z,11.30
2022-08-11T20:11:51.941Z,11.82
2022-08-11T20:14:39.449Z,11.20
2022-08-11T20:17:27.639Z,11.70
2022-08-11T20:20:13.979Z,11.13
2022-08-11T20:22:59.840Z,9.40
2022-08-11T20:25:46.126Z,11.60
2022-08-11T20:28:32.645Z,9.82
2022-08-11T20:31:17.636Z,10.50
2022-08-11T20:34:04.446Z,10.15
2022-08-11T20:36:54.886Z,9.93
2022-08-11T20:39:42.742Z,10.13
2022-08-11T20:42:39.948Z,12.20
2022-08-11T20:45:28.563Z,9.60
2022-08-11T20:48:16.345Z,10.07
2022-08-11T20:51:05.929Z,9.77
2022-08-11T20:53:56.412Z,9.32
2022-08-11T20:56:44.350Z,9.50
2022-08-11T20:59:33.350Z,9.63
2022-08-11T21:02:35.192Z,10.48
2022-08-11T21:06:09.071Z,9.95
2022-08-11T21:08:26.536Z,10.00
2022-08-11T21:11:13.977Z,9.73
2022-08-11T21:14:01.482Z,9.50
2022-08-11T21:16:53.635Z,11.48
2022-08-11T21:20:06.723Z,11.65
2022-08-11T21:22:59.143Z,12.90
2022-08-11T21:26:21.082Z,9.70
2022-08-11T21:29:07.949Z,9.65
2022-08-11T21:31:54.423Z,9.95
2022-08-11T21:34:41.717Z,9.95
2022-08-11T21:37:28.755Z,9.60
2022-08-11T21:40:17.724Z,9.82
2022-08-11T21:43:05.682Z,10.57
2022-08-11T21:45:54.072Z,10.20
2022-08-11T21:48:40.214Z,10.85
2022-08-11T21:51:25.105Z,10.07
2022-08-11T21:54:11.701Z,10.82
2022-08-11T21:56:58.132Z,10.30
2022-08-11T21:59:56.851Z,12.75
2022-08-11T22:02:43.362Z,10.90
2022-08-11T22:05:36.072Z,10.80
2022-08-11T22:08:21.674Z,12.48
2022-08-11T22:11:07.136Z,10.43
2022-08-11T22:14:06.318Z,10.75
2022-08-11T22:16:53.954Z,10.63
2022-08-11T22:19:41.508Z,10.40
2022-08-11T22:22:29.046Z,10.02
2022-08-11T22:25:18.555Z,10.20
2022-08-11T22:28:04.424Z,11.27
2022-08-11T22:30:49.870Z,9.95
2022-08-11T22:33:36.556Z,10.23
2022-08-11T22:36:27.827Z,11.02
2022-08-11T22:39:14.351Z,11.85
2022-08-11T22:41:59.539Z,12.43
2022-08-11T22:44:44.750Z,11.13
2022-08-11T22:47:38.262Z,10.35
2022-08-11T22:50:26.841Z,10.63
2022-08-11T22:53:12.913Z,10.55
2022-08-11T22:55:59.342Z,12.15
2022-08-11T22:58:44.511Z,10.65
2022-08-11T23:01:33.945Z,10.07
2022-08-11T23:04:20.278Z,12.00
2022-08-11T23:07:07.115Z,14.15
2022-08-11T23:09:53.045Z,11.07
2022-08-11T23:12:39.041Z,10.52
2022-08-11T23:15:24.642Z,10.20
2022-08-11T23:18:09.923Z,11.45
2022-08-11T23:20:56.619Z,10.90
2022-08-11T23:23:42.868Z,11.35
2022-08-11T23:26:28.611Z,10.70
2022-08-11T23:29:15.891Z,11.23
2022-08-11T23:32:02.271Z,10.73
2022-08-11T23:35:36.891Z,10.90
2022-08-11T23:37:59.868Z,11.38
2022-08-11T23:40:45.594Z,10.68
2022-08-11T23:43:42.279Z,11.23
2022-08-11T23:46:28.016Z,10.30
2022-08-11T23:49:20.900Z,11.32
2022-08-11T23:52:07.672Z,12.30
2022-08-11T23:54:54.065Z,10.40
2022-08-11T23:57:47.567Z,11.65
